Nearby METAR Reports

 

KSJC - San Jose, California, USA
Distance from station: NE 14km
Actualización: 01/06/2020 23:53
Muy nuboso
Muy nuboso
 Viento del NO
Viento: NO 20 km/h
Temperatura: 26°C
Rocío: 10°C
Humedad: 37%
Barómetro: 1015.2 hPa
Clouds: Muy nuboso
Visibilidad: 16 km
Cloud details: Few Clouds 945 m
Parcialmente nuboso 2743 m
Muy nuboso 5182 m
2020/06/01 21:53 KSJC 012153Z 31011KT 10SM FEW031 SCT090 BKN170 26/10 A2998 RMK AO2 SLP150 T02560100
KNUQ - Moffett Nas/Mtn, California, USA
Distance from station: N 14km
Actualización: 01/06/2020 15:55
NOT Current
Despejado
Despejado
 Viento del calm
Viento: Calma
Temperatura: 15°C
Rocío: 12°C
Humedad: 82%
Barómetro: 1015.6 hPa
Clouds: Despejado
Visibilidad: 16 km
2020/06/01 13:55 KNUQ 011355Z AUTO 00000KT 10SM CLR 15/12 A2999 RMK AO2
 
KPAO - Palo Alto, California, USA
Distance from station: NNO 23km
Actualización: 01/06/2020 23:47
Parcialmente nuboso
Parcialmente nuboso
 Viento del N
Viento: N 26 km/h
Temperatura: 23°C
Rocío: 13°C
Humedad: 53%
Barómetro: 1015.6 hPa
Clouds: Parcialmente nuboso
Visibilidad: 16 km
Cloud details: Few Clouds 1067 m
Parcialmente nuboso 3658 m
2020/06/01 21:47 KPAO 012147Z 35014KT 10SM FEW035 SCT120 23/13 A2999
KRHV - San Jose/Reid, California, USA
Distance from station: ENE 19km
Actualización: 01/06/2020 23:47
Parcialmente nuboso
Parcialmente nuboso
 Viento del ONO
Viento: ONO 15 km/h
Temperatura: 26°C
Rocío: 8°C
Humedad: 32%
Barómetro: 1015.2 hPa
Clouds: Parcialmente nuboso
Visibilidad: 16 km
Cloud details: Few Clouds 1372 m
Parcialmente nuboso 3048 m
2020/06/01 21:47 KRHV 012147Z 29008KT 10SM FEW045 SCT100 26/08 A2998
 
KOAK - Oakland, California, USA
Distance from station: NNO 50km
Actualización: 01/06/2020 23:53
Parcialmente nuboso
Parcialmente nuboso
 Viento del ONO
Viento: ONO 22 km/h
Temperatura: 23°C
Rocío: 12°C
Humedad: 50%
Barómetro: 1016.3 hPa
Clouds: Parcialmente nuboso
Visibilidad: 16 km
Cloud details: Few Clouds 366 m
Few Clouds 3658 m
Parcialmente nuboso 6096 m
2020/06/01 21:53 KOAK 012153Z 29012KT 10SM FEW012 FEW120 SCT200 23/12 A3001 RMK AO2 SLP161 T02280117
KSQL - San Carlos Airpo, California, USA
Distance from station: NO 34km
Actualización: 01/06/2020 22:58
NOT Current
Few Clouds
Few Clouds
 Viento del NNO
Viento: NNO 19 km/h
Temperatura: 24°C
Rocío: 12°C
Humedad: 47%
Barómetro: 1015.9 hPa
Clouds: Few Clouds
Visibilidad: 16 km
Cloud details: Few Clouds 6096 m
2020/06/01 20:58 KSQL 012058Z 33010KT 10SM FEW200 24/12 A3000
 
KSFO - San Francisco, California, USA
Distance from station: NO 49km
Actualización: 01/06/2020 23:56
Parcialmente nuboso
Parcialmente nuboso
 Viento del O
Viento: O 26 km/h
Temperatura: 22°C
Rocío: 11°C
Humedad: 50%
Barómetro: 1015.9 hPa
Clouds: Parcialmente nuboso
Visibilidad: 16 km
Cloud details: Few Clouds 1372 m
Parcialmente nuboso 6096 m
2020/06/01 21:56 KSFO 012156Z 28014KT 10SM FEW045 SCT200 22/11 A3000 RMK AO2 SLP159 T02170106
KE16 - San Martin, California, USA
Distance from station: ESE 43km
Actualización: 01/06/2020 23:45
Despejado
Despejado
 Viento del S
Viento: S 13 km/h, Racha: 26 km/h
Temperatura: 25°C
Rocío: 12°C
Humedad: 44%
Barómetro: 1015.2 hPa
Clouds: Despejado
Visibilidad: 16 km
2020/06/01 21:45 KE16 012145Z AUTO 18007G14KT 150V210 10SM CLR 25/12 A2998 RMK AO2
 
KWVI - Watsonville, California, USA
Distance from station: SSE 44km
Actualización: 01/06/2020 23:53
Despejado
Despejado
 Viento del OSO
Viento: OSO 15 km/h
Temperatura: 19°C
Rocío: 13°C
Humedad: 68%
Barómetro: 1016.6 hPa
Clouds: Despejado
Visibilidad: 16 km
2020/06/01 21:53 KWVI 012153Z AUTO 24008KT 10SM CLR 19/13 A3002 RMK AO2 SLP166 T01890128
KHAF - Half Moon Bay, California, USA
Distance from station: ONO 50km
Actualización: 01/06/2020 23:55
Haze, Despejado
Haze, Despejado
 Viento del ONO
Viento: ONO 15 km/h
Temperatura: 15°C
Rocío: 12°C
Humedad: 82%
Barómetro: 1017.3 hPa
Resumen: Haze
Clouds: Despejado
Visibilidad: 8 km
2020/06/01 21:55 KHAF 012155Z AUTO 30008KT 5SM HZ CLR 15/12 A3004 RMK AO2
 
KHWD - Hayward, California, USA
Distance from station: N 44km
Actualización: 01/06/2020 23:54
Despejado
Despejado
 Viento del O
Viento: O 22 km/h
Temperatura: 23°C
Rocío: 11°C
Humedad: 47%
Barómetro: 1015.6 hPa
Clouds: Despejado
Visibilidad: 16 km
2020/06/01 21:54 KHWD 012154Z 28012KT 10SM CLR 23/11 A2999 RMK AO2 SLP164 T02280111
KLVK - Livermore, California, USA
Distance from station: NNE 51km
Actualización: 01/06/2020 23:53
Despejado
Despejado
 Viento del SO
Viento: SO 13 km/h
Temperatura: 28°C
Rocío: 4°C
Humedad: 21%
Barómetro: 1014.6 hPa
Clouds: Despejado
Visibilidad: 16 km
2020/06/01 21:53 KLVK 012153Z 23007KT 10SM CLR 28/04 A2996 RMK AO2 SLP142 T02780039